Time;durP1;ratioP1;P1;durP2;ratioP2;P2;SDS_P1;SDS_P2;PMS_P1;PMS_P2;Temp;Humidity;BMP_temperature;BMP_pressure;BME280_temperature;BME280_humidity;BME280_pressure;Samples;Min_cycle;Max_cycle;Signal;HPM_P1;HPM_P2
2022/03/05 00:01:24;;;;;;;22.33;6.65;;;8.80;62.30;;;;;;5042245;28;20052;-63
2022/03/05 00:03:50;;;;;;;24.33;6.45;;;8.80;62.40;;;;;;5043680;28;20124;-62
2022/03/05 00:06:15;;;;;;;18.65;6.35;;;8.80;62.40;;;;;;5037903;28;20061;-64
2022/03/05 00:08:41;;;;;;;11.40;5.55;;;8.80;62.20;;;;;;5038907;28;20029;-62
2022/03/05 00:11:07;;;;;;;10.88;4.95;;;8.80;62.30;;;;;;5038920;28;20061;-62
2022/03/05 00:13:35;;;;;;;9.68;4.50;;;8.80;62.20;;;;;;5038464;28;20499;-62
2022/03/05 00:16:01;;;;;;;9.07;4.10;;;8.80;62.40;;;;;;5042781;28;20082;-62
2022/03/05 00:18:27;;;;;;;8.73;4.00;;;8.80;62.10;;;;;;5041479;28;20087;-62
2022/03/05 00:20:53;;;;;;;10.80;4.43;;;8.90;62.50;;;;;;5029588;28;20033;-62
2022/03/05 00:23:19;;;;;;;11.50;4.32;;;8.90;62.40;;;;;;5042542;28;20025;-62
2022/03/05 00:25:45;;;;;;;12.05;5.40;;;8.80;62.40;;;;;;5029442;28;20117;-62
2022/03/05 00:28:11;;;;;;;8.38;3.97;;;8.80;62.60;;;;;;5037159;28;20033;-63
2022/03/05 00:30:37;;;;;;;14.27;5.57;;;8.80;62.70;;;;;;5038443;28;20029;-64
2022/03/05 00:33:03;;;;;;;14.88;4.53;;;8.80;62.40;;;;;;5041486;28;20087;-62
2022/03/05 00:35:29;;;;;;;7.90;4.03;;;8.80;62.70;;;;;;5038967;28;20406;-62
2022/03/05 00:37:55;;;;;;;12.93;4.82;;;8.80;62.80;;;;;;5035893;28;20068;-62
2022/03/05 00:40:21;;;;;;;11.23;4.93;;;8.80;62.60;;;;;;5038887;28;20061;-62
2022/03/05 00:42:47;;;;;;;15.20;4.57;;;8.80;62.90;;;;;;5043813;28;20466;-62
2022/03/05 00:45:13;;;;;;;10.75;4.50;;;8.80;63.10;;;;;;5037863;28;20496;-63
2022/03/05 00:47:39;;;;;;;10.90;4.53;;;8.80;62.90;;;;;;5035190;28;20037;-62
2022/03/05 00:50:07;;;;;;;12.02;5.05;;;8.80;62.80;;;;;;5040232;28;20067;-62
2022/03/05 00:52:34;;;;;;;10.93;3.88;;;8.70;62.90;;;;;;5037870;28;20052;-62
2022/03/05 00:55:00;;;;;;;9.20;4.07;;;8.70;63.10;;;;;;5040456;28;20025;-62
2022/03/05 00:57:25;;;;;;;8.00;3.55;;;8.80;63.10;;;;;;5044711;28;20036;-63
2022/03/05 00:59:51;;;;;;;15.90;5.15;;;8.80;63.30;;;;;;5016758;28;20072;-63
2022/03/05 01:02:17;;;;;;;14.88;4.70;;;8.80;63.10;;;;;;5022587;28;20029;-62
2022/03/05 01:04:43;;;;;;;9.10;4.75;;;8.70;63.10;;;;;;5038680;28;20190;-62
2022/03/05 01:07:08;;;;;;;8.75;3.78;;;8.80;63.30;;;;;;5041499;28;20029;-62
2022/03/05 01:09:34;;;;;;;13.23;4.93;;;8.80;63.30;;;;;;5038083;28;20033;-62
2022/03/05 01:12:00;;;;;;;8.40;5.00;;;8.80;63.30;;;;;;5039752;28;20056;-63
2022/03/05 01:14:25;;;;;;;8.93;4.57;;;8.70;63.30;;;;;;5036291;28;20654;-63
2022/03/05 01:16:51;;;;;;;10.25;4.47;;;8.80;63.60;;;;;;5041924;28;20033;-62
2022/03/05 01:19:17;;;;;;;10.90;4.30;;;8.80;63.50;;;;;;5037684;28;20033;-62
2022/03/05 01:21:42;;;;;;;9.85;3.85;;;8.80;63.50;;;;;;5037018;28;20057;-63
2022/03/05 01:24:08;;;;;;;10.05;4.70;;;8.80;63.50;;;;;;5022782;28;20032;-62
2022/03/05 01:26:34;;;;;;;9.48;5.03;;;8.80;63.60;;;;;;5038583;28;20034;-62
2022/03/05 01:29:00;;;;;;;10.98;4.28;;;8.80;63.60;;;;;;5035844;28;20124;-62
2022/03/05 01:31:26;;;;;;;11.45;4.10;;;8.70;63.60;;;;;;5041054;28;20116;-62
2022/03/05 01:33:51;;;;;;;11.35;4.22;;;8.70;63.90;;;;;;5040412;28;20025;-62
2022/03/05 01:36:17;;;;;;;8.35;3.85;;;8.70;63.90;;;;;;5039657;28;20052;-62
2022/03/05 01:38:43;;;;;;;15.45;4.53;;;8.70;64.10;;;;;;5019688;28;20088;-62
2022/03/05 01:41:09;;;;;;;13.55;4.43;;;8.70;64.20;;;;;;5023697;28;20082;-62
2022/03/05 01:43:34;;;;;;;16.15;4.13;;;8.70;64.10;;;;;;5016573;28;21084;-62
2022/03/05 01:46:00;;;;;;;14.75;5.32;;;8.70;64.30;;;;;;5020601;28;20083;-62
2022/03/05 01:48:26;;;;;;;11.30;4.72;;;8.70;64.30;;;;;;5035310;28;20017;-62
2022/03/05 01:50:51;;;;;;;12.30;5.22;;;8.70;64.30;;;;;;5018870;28;20032;-62
2022/03/05 01:53:17;;;;;;;7.90;4.40;;;8.70;64.40;;;;;;5016251;28;20534;-62
2022/03/05 01:55:43;;;;;;;13.30;4.85;;;8.70;64.10;;;;;;5029228;28;20035;-62
2022/03/05 01:58:09;;;;;;;12.27;5.18;;;8.70;64.30;;;;;;5039625;28;20021;-62
2022/03/05 02:00:35;;;;;;;7.95;3.90;;;8.70;64.20;;;;;;5041135;28;20064;-62
2022/03/05 02:03:02;;;;;;;10.60;4.53;;;8.70;64.40;;;;;;5040481;28;20053;-62
2022/03/05 02:05:28;;;;;;;9.10;4.95;;;8.70;64.50;;;;;;5044241;28;20033;-62
2022/03/05 02:07:53;;;;;;;13.45;5.72;;;8.60;64.40;;;;;;5038658;28;20029;-62
2022/03/05 02:10:20;;;;;;;15.23;4.55;;;8.70;64.60;;;;;;5039260;28;20033;-63
2022/03/05 02:12:46;;;;;;;11.77;5.18;;;8.70;64.40;;;;;;5037053;28;20151;-62
2022/03/05 02:15:11;;;;;;;17.20;4.78;;;8.70;64.60;;;;;;5038500;28;20600;-62
2022/03/05 02:17:38;;;;;;;13.65;4.38;;;8.70;64.60;;;;;;5038907;28;20694;-62
2022/03/05 02:20:06;;;;;;;11.50;3.97;;;8.70;64.60;;;;;;5036727;28;20501;-62
2022/03/05 02:22:31;;;;;;;16.70;5.15;;;8.70;64.60;;;;;;5035405;28;20073;-62
2022/03/05 02:25:03;;;;;;;9.13;4.07;;;8.60;64.70;;;;;;5017790;28;20021;-62
2022/03/05 02:27:30;;;;;;;9.75;4.40;;;8.70;64.80;;;;;;5038143;28;20033;-63
2022/03/05 02:29:56;;;;;;;8.10;4.38;;;8.70;64.70;;;;;;5039014;28;20029;-62
2022/03/05 02:32:23;;;;;;;11.93;5.07;;;8.70;64.30;;;;;;5035427;28;20112;-62
2022/03/05 02:34:49;;;;;;;13.10;5.22;;;8.60;64.60;;;;;;5039561;28;20029;-65
2022/03/05 02:37:16;;;;;;;12.48;4.78;;;8.70;64.60;;;;;;5038063;28;20026;-62
2022/03/05 02:39:43;;;;;;;7.85;4.35;;;8.70;64.70;;;;;;5039168;28;20017;-63
2022/03/05 02:42:09;;;;;;;9.70;4.60;;;8.70;64.70;;;;;;5037452;28;20029;-62
2022/03/05 02:44:35;;;;;;;10.77;4.60;;;8.70;64.80;;;;;;5037157;28;20635;-62
2022/03/05 02:47:01;;;;;;;16.55;4.78;;;8.70;64.70;;;;;;5042938;28;20045;-62
2022/03/05 02:49:26;;;;;;;12.52;5.53;;;8.70;64.70;;;;;;5035554;28;20036;-62
2022/03/05 02:51:52;;;;;;;9.60;4.03;;;8.60;65.00;;;;;;5017550;28;20025;-63
2022/03/05 02:54:18;;;;;;;12.55;5.32;;;8.60;64.90;;;;;;5022758;28;20030;-63
2022/03/05 02:56:44;;;;;;;14.88;5.15;;;8.60;64.90;;;;;;5036295;28;20030;-62
2022/03/05 02:59:10;;;;;;;12.55;4.88;;;8.60;65.10;;;;;;5039385;28;20031;-62
2022/03/05 03:01:35;;;;;;;13.82;5.38;;;8.60;65.10;;;;;;5035962;28;20067;-62
2022/03/05 03:04:02;;;;;;;13.45;5.75;;;8.60;65.20;;;;;;5044543;28;20112;-63
2022/03/05 03:06:28;;;;;;;11.38;4.30;;;8.60;64.80;;;;;;5034902;28;20042;-62
2022/03/05 03:08:53;;;;;;;17.17;5.03;;;8.60;64.80;;;;;;5039645;28;20037;-63
2022/03/05 03:11:19;;;;;;;11.55;3.92;;;8.60;65.20;;;;;;5031341;28;20079;-62
2022/03/05 03:13:45;;;;;;;12.02;4.68;;;8.60;65.10;;;;;;5027407;28;20056;-62
2022/03/05 03:16:10;;;;;;;13.73;4.93;;;8.60;65.80;;;;;;5035710;28;20037;-62
2022/03/05 03:18:36;;;;;;;16.13;4.50;;;8.60;65.10;;;;;;5037836;28;20033;-62
2022/03/05 03:21:02;;;;;;;9.77;4.22;;;8.60;65.40;;;;;;5038446;28;20527;-62
2022/03/05 03:23:27;;;;;;;12.93;5.15;;;8.60;65.50;;;;;;5034473;28;20032;-63
2022/03/05 03:25:53;;;;;;;11.27;4.55;;;8.60;65.40;;;;;;5037813;28;20099;-62
2022/03/05 03:28:18;;;;;;;14.23;5.88;;;8.60;65.50;;;;;;5035931;28;20029;-63
2022/03/05 03:30:44;;;;;;;10.15;4.35;;;8.60;65.30;;;;;;5036008;28;20117;-62
2022/03/05 03:33:10;;;;;;;12.35;4.85;;;8.60;65.30;;;;;;5028093;28;20033;-63
2022/03/05 03:35:36;;;;;;;13.25;5.03;;;8.60;65.50;;;;;;5043247;28;20040;-62
2022/03/05 03:38:02;;;;;;;10.45;5.40;;;8.60;65.40;;;;;;5038552;28;20036;-63
2022/03/05 03:40:38;;;;;;;12.15;4.78;;;8.50;65.40;;;;;;5043831;28;20386;-62
2022/03/05 03:43:04;;;;;;;13.02;5.50;;;8.60;65.50;;;;;;5010023;28;20029;-62
2022/03/05 03:45:29;;;;;;;11.90;5.22;;;8.60;65.50;;;;;;5038257;28;20055;-63
2022/03/05 03:47:55;;;;;;;11.13;4.75;;;8.60;65.70;;;;;;5041274;28;20081;-62
2022/03/05 03:50:22;;;;;;;10.43;4.60;;;8.60;65.60;;;;;;5041733;28;20691;-62
2022/03/05 03:52:49;;;;;;;11.68;5.53;;;8.60;65.50;;;;;;5024132;28;20740;-62
2022/03/05 03:55:21;;;;;;;12.15;4.45;;;8.50;65.50;;;;;;5027147;28;20112;-62
2022/03/05 03:57:47;;;;;;;12.57;4.57;;;8.50;65.60;;;;;;5048246;28;20120;-62
2022/03/05 04:00:40;;;;;;;13.90;4.53;;;8.60;65.60;;;;;;5055836;28;20017;-63
2022/03/05 04:03:06;;;;;;;24.40;5.78;;;8.50;65.60;;;;;;5041675;28;20497;-63
2022/03/05 04:05:31;;;;;;;15.52;4.82;;;8.50;65.60;;;;;;5028612;28;20048;-63
2022/03/05 04:10:42;;;;;;;13.63;5.03;;;8.50;65.60;;;;;;5043159;28;20099;-63
2022/03/05 04:13:08;;;;;;;10.98;5.22;;;8.50;65.60;;;;;;5036675;28;20501;-62
2022/03/05 04:15:34;;;;;;;18.33;5.85;;;8.50;65.70;;;;;;5039505;28;20057;-63
2022/03/05 04:17:59;;;;;;;13.52;5.20;;;8.50;65.60;;;;;;5038778;28;20072;-62
2022/03/05 04:20:25;;;;;;;15.05;5.50;;;8.50;65.80;;;;;;5039011;28;20021;-64
2022/03/05 04:22:51;;;;;;;10.27;5.13;;;8.50;65.80;;;;;;5042183;28;20177;-62
2022/03/05 04:25:17;;;;;;;13.45;5.50;;;8.50;65.80;;;;;;5024549;28;20029;-63
2022/03/05 04:27:42;;;;;;;14.18;4.78;;;8.50;65.70;;;;;;5039469;28;20029;-62
2022/03/05 05:13:53;;;;;;;17.90;5.50;;;8.50;66.00;;;;;;5052914;28;20039;-63
2022/03/05 05:16:21;;;;;;;15.85;5.45;;;8.50;65.90;;;;;;5059102;28;20531;-63
2022/03/05 05:21:32;;;;;;;14.00;5.80;;;8.50;66.00;;;;;;5048535;28;20090;-62
2022/03/05 05:23:58;;;;;;;10.63;4.88;;;8.50;65.90;;;;;;5050158;28;20061;-63
2022/03/05 05:26:26;;;;;;;15.20;6.07;;;8.50;65.80;;;;;;5050021;28;20075;-62
2022/03/05 05:28:52;;;;;;;15.85;5.00;;;8.50;65.80;;;;;;5048129;28;20533;-63
2022/03/05 05:31:17;;;;;;;17.48;6.10;;;8.50;65.90;;;;;;5047665;28;20128;-62
2022/03/05 05:33:45;;;;;;;15.60;6.03;;;8.50;65.90;;;;;;5050369;28;20024;-63
2022/03/05 05:36:12;;;;;;;18.90;6.78;;;8.50;65.90;;;;;;5031786;28;20037;-62
2022/03/05 05:38:39;;;;;;;16.83;5.57;;;8.50;65.80;;;;;;5049643;28;20036;-62
2022/03/05 05:41:05;;;;;;;17.48;5.80;;;8.40;65.90;;;;;;5031686;28;20531;-62
2022/03/05 05:43:30;;;;;;;15.73;6.18;;;8.50;66.10;;;;;;5031481;28;20040;-62
2022/03/05 05:45:56;;;;;;;14.82;5.22;;;8.50;66.30;;;;;;5030455;28;20037;-63
2022/03/05 05:48:22;;;;;;;13.35;5.70;;;8.50;66.00;;;;;;5045200;28;20029;-62
2022/03/05 05:50:47;;;;;;;16.38;5.65;;;8.50;66.10;;;;;;5038442;28;20106;-62
2022/03/05 05:53:13;;;;;;;18.42;5.97;;;8.40;66.20;;;;;;5027306;28;20029;-62
2022/03/05 05:55:39;;;;;;;12.80;5.57;;;8.40;66.20;;;;;;5051649;28;20021;-62
2022/03/05 05:58:05;;;;;;;12.45;6.00;;;8.40;66.00;;;;;;5051268;28;20032;-62
2022/03/05 06:03:56;;;;;;;8.52;4.63;;;8.40;66.20;;;;;;5052007;28;20507;-62
2022/03/05 06:06:22;;;;;;;14.13;6.28;;;8.50;67.10;;;;;;5047405;28;20052;-62
2022/03/05 06:08:48;;;;;;;15.75;6.25;;;8.50;66.20;;;;;;5030861;28;20029;-62
2022/03/05 06:11:14;;;;;;;17.63;5.45;;;8.50;66.30;;;;;;5030051;28;20027;-63
2022/03/05 06:13:40;;;;;;;14.10;6.72;;;8.40;66.30;;;;;;5030302;28;20021;-62
2022/03/05 06:16:06;;;;;;;11.73;5.90;;;8.40;66.20;;;;;;5045540;28;20087;-63
2022/03/05 06:18:33;;;;;;;12.82;5.70;;;8.50;66.30;;;;;;5030964;28;20120;-62
2022/03/05 06:20:58;;;;;;;14.20;6.35;;;8.50;66.30;;;;;;5030805;28;20470;-63
2022/03/05 06:23:24;;;;;;;15.43;5.57;;;8.50;65.80;;;;;;5047392;28;20028;-62
2022/03/05 06:25:51;;;;;;;16.63;6.65;;;8.50;65.80;;;;;;5048638;28;20072;-62
2022/03/05 06:28:17;;;;;;;15.77;6.38;;;8.50;66.00;;;;;;5049067;28;20055;-62
2022/03/05 06:30:43;;;;;;;10.63;5.25;;;8.50;65.50;;;;;;5057920;28;20112;-62
2022/03/05 06:33:09;;;;;;;17.73;6.57;;;8.50;65.60;;;;;;5066968;28;20699;-62
2022/03/05 06:35:35;;;;;;;19.55;7.07;;;8.50;65.60;;;;;;5048858;28;20021;-62
2022/03/05 06:38:01;;;;;;;15.55;6.57;;;8.50;65.80;;;;;;5048314;28;20033;-62
2022/03/05 06:40:27;;;;;;;16.98;6.90;;;8.50;65.90;;;;;;5047979;28;20124;-62
2022/03/05 06:42:54;;;;;;;14.00;4.85;;;8.40;65.80;;;;;;5047998;28;20112;-62
2022/03/05 06:45:21;;;;;;;17.88;7.28;;;8.50;65.90;;;;;;5052646;28;20044;-62
2022/03/05 06:47:46;;;;;;;14.70;6.10;;;8.40;65.90;;;;;;5068761;28;20128;-62
2022/03/05 06:50:12;;;;;;;22.58;7.25;;;8.50;66.20;;;;;;5050057;28;20059;-63
2022/03/05 06:52:38;;;;;;;22.25;8.68;;;8.50;65.90;;;;;;5030626;28;20143;-62
2022/03/05 06:55:06;;;;;;;14.18;7.07;;;8.60;65.80;;;;;;5047796;28;20021;-62
2022/03/05 06:57:32;;;;;;;12.75;6.05;;;8.60;65.30;;;;;;5030257;28;20029;-62
2022/03/05 06:59:57;;;;;;;14.35;6.00;;;8.70;65.60;;;;;;5047064;28;20102;-63
2022/03/05 07:02:23;;;;;;;19.77;7.97;;;8.70;65.10;;;;;;5067302;28;20033;-62
2022/03/05 07:04:49;;;;;;;16.42;6.20;;;8.70;65.00;;;;;;5068067;28;20029;-62
2022/03/05 07:07:15;;;;;;;20.50;8.07;;;8.70;65.10;;;;;;5064420;28;20128;-63
2022/03/05 07:09:41;;;;;;;22.45;7.60;;;8.80;64.90;;;;;;5051268;28;20504;-63
2022/03/05 07:12:07;;;;;;;19.98;9.18;;;8.90;65.00;;;;;;5051600;28;20024;-62
2022/03/05 07:14:33;;;;;;;21.33;8.35;;;8.90;64.80;;;;;;5052004;28;20032;-62
2022/03/05 07:16:59;;;;;;;17.38;7.60;;;8.90;64.70;;;;;;5066635;28;20024;-62
2022/03/05 07:19:24;;;;;;;19.63;8.35;;;8.90;64.70;;;;;;5056087;28;20473;-62
2022/03/05 07:21:50;;;;;;;21.02;8.45;;;9.00;64.70;;;;;;5051631;28;20474;-62
2022/03/05 07:24:16;;;;;;;20.42;8.30;;;9.00;64.60;;;;;;5051337;28;20703;-62
2022/03/05 07:26:42;;;;;;;23.02;7.97;;;9.00;64.50;;;;;;5050723;28;20130;-63
2022/03/05 07:29:08;;;;;;;18.10;8.15;;;9.00;64.60;;;;;;5051489;28;20501;-63
2022/03/05 07:31:33;;;;;;;23.05;7.93;;;9.10;64.70;;;;;;5062186;28;20032;-63
2022/03/05 07:33:59;;;;;;;22.48;10.05;;;9.10;64.60;;;;;;5033671;28;20025;-63
2022/03/05 07:36:25;;;;;;;20.52;8.50;;;9.20;64.20;;;;;;5051633;28;20025;-62
2022/03/05 07:38:51;;;;;;;21.27;7.22;;;9.20;64.10;;;;;;5051453;28;20043;-63
2022/03/05 07:41:17;;;;;;;24.98;8.60;;;9.30;64.20;;;;;;5051328;28;20083;-63
2022/03/05 07:43:43;;;;;;;23.23;8.43;;;9.30;64.00;;;;;;5051539;28;20482;-63
2022/03/05 07:46:09;;;;;;;23.17;8.25;;;9.30;64.00;;;;;;5050598;28;20079;-63
2022/03/05 07:48:35;;;;;;;22.30;8.82;;;9.40;64.10;;;;;;5052187;28;20028;-62
2022/03/05 07:51:02;;;;;;;22.52;9.32;;;9.40;64.00;;;;;;5052045;28;20102;-63
2022/03/05 07:53:28;;;;;;;25.92;10.60;;;9.50;64.00;;;;;;5032615;28;20032;-63
2022/03/05 07:55:55;;;;;;;22.02;9.52;;;9.50;64.00;;;;;;5052276;28;20420;-62
2022/03/05 07:58:21;;;;;;;26.50;9.30;;;9.50;64.00;;;;;;5051763;28;20056;-62
2022/03/05 08:00:46;;;;;;;25.80;10.02;;;9.50;63.80;;;;;;5051056;28;20033;-63
2022/03/05 08:03:13;;;;;;;27.20;9.02;;;9.50;63.90;;;;;;5050020;28;20083;-66
2022/03/05 08:05:38;;;;;;;28.17;11.90;;;9.50;64.10;;;;;;5050851;28;20033;-63
2022/03/05 08:08:04;;;;;;;16.67;8.45;;;8.90;60.30;;;;;;5037500;28;20535;-63
2022/03/05 08:10:30;;;;;;;27.10;9.23;;;8.20;60.40;;;;;;5049642;28;20203;-64
2022/03/05 08:12:56;;;;;;;23.38;9.48;;;8.10;60.50;;;;;;5049457;28;20557;-64
2022/03/05 08:15:22;;;;;;;29.13;10.27;;;7.80;59.50;;;;;;5050917;28;20029;-64
2022/03/05 08:17:55;;;;;;;24.90;11.65;;;7.40;60.80;;;;;;5050591;28;20033;-63
2022/03/05 08:20:23;;;;;;;25.30;12.38;;;7.30;60.00;;;;;;5049907;28;20029;-64
2022/03/05 08:22:49;;;;;;;21.33;9.40;;;7.30;61.20;;;;;;5049641;28;20037;-64
2022/03/05 08:25:15;;;;;;;39.30;11.55;;;7.40;61.00;;;;;;5049722;28;20559;-64
2022/03/05 08:27:41;;;;;;;25.92;11.48;;;7.30;60.90;;;;;;5051274;28;20033;-63
2022/03/05 08:30:07;;;;;;;27.58;11.30;;;7.30;60.30;;;;;;5050094;28;20025;-63
2022/03/05 08:32:33;;;;;;;23.88;9.85;;;7.10;60.00;;;;;;5064736;28;20033;-63
2022/03/05 08:34:58;;;;;;;27.83;10.13;;;7.00;60.70;;;;;;5050227;28;20036;-64
2022/03/05 08:37:24;;;;;;;22.95;10.43;;;6.80;61.20;;;;;;5049186;28;20094;-64
2022/03/05 08:39:50;;;;;;;26.85;10.65;;;6.80;61.40;;;;;;5047763;28;20039;-64
2022/03/05 08:42:15;;;;;;;30.38;13.20;;;7.10;61.10;;;;;;5048857;28;20497;-63
2022/03/05 08:44:41;;;;;;;28.45;12.65;;;7.20;60.80;;;;;;5049345;28;20106;-63
2022/03/05 08:47:07;;;;;;;20.77;9.77;;;6.90;60.50;;;;;;5053033;28;20044;-64
2022/03/05 08:49:33;;;;;;;29.35;14.07;;;6.70;62.00;;;;;;5049336;28;20029;-64
2022/03/05 08:51:58;;;;;;;30.08;9.68;;;6.70;61.40;;;;;;5048918;28;20029;-64
2022/03/05 08:54:25;;;;;;;25.58;11.20;;;6.80;61.80;;;;;;5049312;28;20025;-64
2022/03/05 08:56:51;;;;;;;31.52;13.95;;;7.00;61.90;;;;;;5045019;28;20036;-63
2022/03/05 08:59:17;;;;;;;26.67;10.93;;;6.80;60.80;;;;;;5047767;28;20032;-63
2022/03/05 09:01:43;;;;;;;30.77;10.52;;;6.80;61.50;;;;;;5053163;28;20029;-63
2022/03/05 09:04:09;;;;;;;28.17;12.50;;;6.80;61.30;;;;;;5069336;28;20099;-63
2022/03/05 09:06:35;;;;;;;25.10;10.00;;;7.00;61.50;;;;;;5051543;28;20047;-63
2022/03/05 09:09:01;;;;;;;27.95;12.48;;;6.90;60.70;;;;;;5050025;28;20044;-64
2022/03/05 09:11:27;;;;;;;17.48;8.02;;;7.00;61.00;;;;;;5048753;28;20087;-64
2022/03/05 09:13:53;;;;;;;33.20;12.50;;;7.20;60.50;;;;;;5049171;28;20068;-64
2022/03/05 09:16:18;;;;;;;27.27;11.52;;;7.30;60.30;;;;;;5048066;28;20466;-64
2022/03/05 09:18:44;;;;;;;32.25;13.73;;;7.10;60.20;;;;;;5049519;28;20482;-64
2022/03/05 09:21:10;;;;;;;28.30;11.25;;;6.90;60.30;;;;;;5031315;28;20064;-63
2022/03/05 09:23:36;;;;;;;29.83;10.82;;;6.90;61.10;;;;;;5044468;28;20036;-64
2022/03/05 09:26:02;;;;;;;26.92;10.02;;;7.00;60.20;;;;;;5048052;28;20029;-64
2022/03/05 09:28:27;;;;;;;23.98;11.18;;;7.10;61.10;;;;;;5048112;28;20140;-64
2022/03/05 09:30:53;;;;;;;36.50;10.95;;;7.10;59.90;;;;;;5048517;28;20112;-64
2022/03/05 09:33:22;;;;;;;28.20;11.35;;;7.10;60.40;;;;;;5064036;28;20210;-64
2022/03/05 09:35:49;;;;;;;27.88;10.80;;;6.90;60.30;;;;;;5061852;28;20032;-64
2022/03/05 09:38:15;;;;;;;25.23;11.13;;;6.80;59.90;;;;;;5049342;28;20111;-64
2022/03/05 09:40:41;;;;;;;25.52;10.02;;;6.70;60.80;;;;;;5050181;28;20029;-64
2022/03/05 09:43:07;;;;;;;25.33;10.07;;;6.80;60.40;;;;;;5048426;28;20028;-64
2022/03/05 09:45:34;;;;;;;21.35;10.15;;;6.60;59.70;;;;;;5049838;28;20124;-64
2022/03/05 09:48:00;;;;;;;26.08;12.13;;;6.70;59.80;;;;;;5060025;28;20038;-64
2022/03/05 09:50:32;;;;;;;21.08;7.53;;;6.50;59.90;;;;;;5062305;28;20409;-63
2022/03/05 09:52:59;;;;;;;25.50;9.63;;;6.50;60.10;;;;;;5048872;28;20052;-63
2022/03/05 09:55:26;;;;;;;23.52;8.40;;;6.70;59.90;;;;;;5049149;28;20541;-63
2022/03/05 09:57:51;;;;;;;20.40;8.27;;;6.50;59.00;;;;;;5048782;28;20021;-63
2022/03/05 10:00:17;;;;;;;25.00;10.20;;;6.60;59.30;;;;;;5041141;28;20638;-64
2022/03/05 10:02:46;;;;;;;18.88;8.48;;;6.80;59.30;;;;;;5038745;28;20455;-63
2022/03/05 10:05:17;;;;;;;20.52;8.75;;;7.00;59.10;;;;;;5011699;28;20018;-63
2022/03/05 10:08:10;;;;;;;19.17;8.68;;;7.10;58.60;;;;;;5029479;28;20024;-63
2022/03/05 10:10:53;;;;;;;17.45;6.90;;;7.10;58.90;;;;;;5011983;28;20095;-63
2022/03/05 10:13:28;;;;;;;21.63;7.60;;;6.70;58.80;;;;;;5028077;28;20017;-63
2022/03/05 10:15:58;;;;;;;21.23;10.35;;;6.70;58.80;;;;;;5029183;28;20026;-63
2022/03/05 10:18:32;;;;;;;15.70;7.03;;;7.00;58.40;;;;;;5056721;28;20063;-64
2022/03/05 10:21:09;;;;;;;13.68;6.22;;;7.20;58.10;;;;;;5052475;28;20025;-64
2022/03/05 10:23:42;;;;;;;16.55;6.57;;;7.10;57.60;;;;;;5047516;28;20029;-63
2022/03/05 10:26:09;;;;;;;11.65;5.80;;;6.80;57.90;;;;;;5048064;28;20052;-63
2022/03/05 10:28:40;;;;;;;17.50;7.55;;;7.20;58.30;;;;;;5048977;28;20036;-63
2022/03/05 10:31:09;;;;;;;21.65;8.35;;;7.30;57.40;;;;;;5048374;28;20052;-63
2022/03/05 10:33:47;;;;;;;21.65;7.95;;;7.20;56.80;;;;;;5046537;28;20032;-63
2022/03/05 10:36:21;;;;;;;12.50;5.30;;;7.40;57.20;;;;;;5047818;28;20112;-63
2022/03/05 10:38:55;;;;;;;22.63;9.10;;;7.40;56.40;;;;;;5048648;28;20071;-63
2022/03/05 10:41:41;;;;;;;15.13;5.60;;;7.10;55.80;;;;;;5048204;28;20061;-63
2022/03/05 10:44:11;;;;;;;15.70;7.65;;;6.90;55.50;;;;;;5047178;28;20037;-63
2022/03/05 10:46:57;;;;;;;17.40;7.25;;;7.00;56.10;;;;;;5049234;28;20025;-63
2022/03/05 10:49:37;;;;;;;16.40;6.13;;;7.00;55.10;;;;;;5028944;28;20034;-63
2022/03/05 10:52:04;;;;;;;15.30;6.15;;;7.10;55.50;;;;;;5027809;28;20025;-63
2022/03/05 10:54:38;;;;;;;14.00;6.18;;;7.30;55.20;;;;;;5010313;28;20028;-64
2022/03/05 10:57:08;;;;;;;19.13;6.47;;;7.40;54.70;;;;;;5028407;28;20033;-63
2022/03/05 10:59:42;;;;;;;16.20;6.25;;;7.30;54.20;;;;;;5036707;28;20119;-63
2022/03/05 11:02:09;;;;;;;16.00;7.03;;;7.60;54.30;;;;;;5047235;28;20051;-64
2022/03/05 11:04:36;;;;;;;21.58;7.35;;;7.70;52.80;;;;;;5047851;28;20712;-63
2022/03/05 11:07:02;;;;;;;18.92;8.77;;;7.60;52.60;;;;;;5047738;28;20059;-63
2022/03/05 11:09:29;;;;;;;11.75;4.35;;;7.70;52.70;;;;;;5048628;28;20021;-63
2022/03/05 11:11:57;;;;;;;14.63;5.50;;;7.80;53.30;;;;;;5047415;28;20025;-65
2022/03/05 11:14:23;;;;;;;13.10;5.20;;;7.80;51.80;;;;;;5048411;28;20068;-64
2022/03/05 11:16:49;;;;;;;17.02;8.32;;;8.00;52.50;;;;;;5048306;28;20029;-64
2022/03/05 11:19:16;;;;;;;15.00;6.60;;;8.00;51.50;;;;;;5047237;28;20379;-64
2022/03/05 11:21:42;;;;;;;16.33;6.40;;;7.90;50.80;;;;;;5047008;28;20510;-63
2022/03/05 11:24:11;;;;;;;1.38;0.88;;;8.00;51.20;;;;;;5048036;28;20025;-64
2022/03/05 11:26:38;;;;;;;18.30;8.25;;;8.20;51.40;;;;;;5047625;28;20025;-67
2022/03/05 11:29:04;;;;;;;12.70;5.80;;;8.40;51.00;;;;;;5048056;28;20033;-68
2022/03/05 11:31:32;;;;;;;13.48;6.00;;;7.90;48.90;;;;;;5047789;28;20036;-67
2022/03/05 11:34:17;;;;;;;14.63;7.63;;;7.90;48.70;;;;;;5033898;28;20035;-68
2022/03/05 11:36:45;;;;;;;14.55;5.35;;;7.70;48.70;;;;;;5028539;28;20112;-67
2022/03/05 11:39:19;;;;;;;12.55;5.43;;;7.80;49.20;;;;;;5028257;28;20029;-67
2022/03/05 11:41:57;;;;;;;10.57;4.53;;;7.80;48.70;;;;;;5027651;28;20548;-67
2022/03/05 11:44:28;;;;;;;10.73;4.55;;;8.00;49.00;;;;;;5027644;28;20087;-68
2022/03/05 11:47:18;;;;;;;11.05;4.63;;;8.10;49.30;;;;;;5023181;28;20502;-75
2022/03/05 11:49:58;;;;;;;16.15;5.43;;;8.10;48.40;;;;;;5044867;28;20033;-65
2022/03/05 11:52:53;;;;;;;14.02;5.65;;;8.00;48.90;;;;;;5047619;28;20104;-65
2022/03/05 11:55:20;;;;;;;10.20;5.05;;;7.90;48.20;;;;;;5027341;28;20478;-66
2022/03/05 11:57:51;;;;;;;9.27;4.78;;;8.00;48.80;;;;;;5032125;28;20422;-64
2022/03/05 12:00:29;;;;;;;15.32;6.70;;;8.00;48.50;;;;;;5020091;28;20113;-67
2022/03/05 12:02:56;;;;;;;14.82;6.18;;;8.40;48.80;;;;;;5021934;28;20069;-66
2022/03/05 12:05:44;;;;;;;10.27;4.47;;;8.20;47.90;;;;;;5023264;28;20112;-65
2022/03/05 12:08:24;;;;;;;14.70;5.18;;;8.30;47.90;;;;;;5027339;28;20032;-64
2022/03/05 12:11:22;;;;;;;8.70;4.32;;;8.80;48.60;;;;;;5023403;28;20506;-65
2022/03/05 12:13:54;;;;;;;14.68;7.07;;;8.70;47.40;;;;;;4960466;28;20027;-65
2022/03/05 12:16:23;;;;;;;12.88;5.57;;;8.60;47.20;;;;;;4958496;28;20066;-64
2022/03/05 12:18:49;;;;;;;12.70;5.63;;;8.50;47.10;;;;;;4959403;28;20031;-65
2022/03/05 12:21:29;;;;;;;13.23;5.50;;;8.20;47.20;;;;;;4967847;28;20055;-65
2022/03/05 12:24:09;;;;;;;14.75;5.80;;;8.20;47.60;;;;;;4952642;28;20085;-65
2022/03/05 12:26:55;;;;;;;16.83;6.55;;;8.40;47.40;;;;;;4957792;28;20074;-65
2022/03/05 12:29:21;;;;;;;14.77;5.68;;;8.50;47.70;;;;;;4960255;28;20039;-65
2022/03/05 12:31:47;;;;;;;10.70;5.07;;;8.50;47.60;;;;;;4952174;28;20433;-64
2022/03/05 12:34:13;;;;;;;8.43;4.20;;;8.30;47.30;;;;;;4963759;28;20058;-65
2022/03/05 12:36:46;;;;;;;13.88;6.25;;;8.50;47.40;;;;;;4959272;28;20039;-65
2022/03/05 12:39:14;;;;;;;14.35;5.72;;;8.60;46.50;;;;;;4962064;28;20069;-64
2022/03/05 12:41:42;;;;;;;16.20;7.35;;;8.70;46.90;;;;;;4965380;28;20039;-65
2022/03/05 12:44:11;;;;;;;15.40;6.50;;;8.70;46.70;;;;;;4953888;28;20155;-65
2022/03/05 12:46:37;;;;;;;18.38;8.30;;;8.60;46.90;;;;;;4961299;28;20062;-64
2022/03/05 12:49:06;;;;;;;15.07;6.57;;;7.90;47.30;;;;;;4986182;28;20470;-65
2022/03/05 12:51:33;;;;;;;15.15;6.40;;;7.80;48.20;;;;;;5030182;28;20022;-65
2022/03/05 12:54:01;;;;;;;12.25;5.88;;;7.90;47.70;;;;;;5018792;28;20112;-64
2022/03/05 12:56:27;;;;;;;14.95;6.20;;;8.10;47.80;;;;;;5018537;28;20494;-65
2022/03/05 12:58:59;;;;;;;15.43;6.95;;;7.90;47.60;;;;;;5026343;28;20053;-64
2022/03/05 13:01:26;;;;;;;10.73;4.60;;;8.10;47.90;;;;;;5030593;28;20080;-65
2022/03/05 13:03:55;;;;;;;14.45;6.88;;;7.90;48.00;;;;;;5034663;28;20098;-65
2022/03/05 13:06:21;;;;;;;18.52;8.48;;;8.20;48.20;;;;;;5013835;28;20041;-64
2022/03/05 13:08:47;;;;;;;10.85;4.95;;;8.40;47.00;;;;;;5022710;28;20091;-65
2022/03/05 13:11:21;;;;;;;14.15;6.35;;;8.40;47.20;;;;;;5021221;28;20549;-65
2022/03/05 13:13:49;;;;;;;12.43;6.13;;;8.30;47.20;;;;;;5025294;28;20032;-65
2022/03/05 13:16:29;;;;;;;12.57;6.35;;;8.40;47.70;;;;;;5018295;28;20025;-65
2022/03/05 13:18:56;;;;;;;18.58;7.65;;;8.30;47.40;;;;;;5034070;28;20037;-66
2022/03/05 13:21:22;;;;;;;16.52;7.20;;;8.20;48.00;;;;;;5029533;28;20017;-64
2022/03/05 13:23:48;;;;;;;15.43;5.80;;;8.00;47.80;;;;;;5011391;28;20018;-64
2022/03/05 13:26:13;;;;;;;11.05;5.43;;;7.90;48.60;;;;;;5021800;28;20495;-64
2022/03/05 13:28:39;;;;;;;16.98;6.70;;;7.90;48.40;;;;;;5018529;28;20503;-64
2022/03/05 13:31:05;;;;;;;15.38;6.47;;;7.50;48.00;;;;;;5027387;28;20084;-64
2022/03/05 13:33:46;;;;;;;16.17;6.50;;;7.50;49.10;;;;;;5018887;28;20030;-65
2022/03/05 13:36:13;;;;;;;13.05;6.45;;;7.60;49.30;;;;;;5019666;28;20076;-64
2022/03/05 13:38:39;;;;;;;11.93;6.13;;;7.70;48.80;;;;;;5013865;28;20034;-64
2022/03/05 13:41:10;;;;;;;15.93;7.45;;;7.60;48.90;;;;;;5009363;28;20026;-63